METAR AND TAF INFORMATION
METAR FOR SPQT
ADDS - METARS form results

(2200 UTC 16 January 2019)
Data provider http://aviationweather.gov/metar/data/
 
METAR text: SPQT 162134Z 19006KT 7000 -SHRA BKN020 BKN100 25/24 Q1010 RMK CB SE
Conditions at: SPQT (IQUITOS/SECADA , PE) observed 2134 UTC 16 January 2019
Temperature: 25.0°C (77°F)
Dewpoint: 24.0°C (75°F) [RH = 94%]
Pressure (altimeter): 29.82 inches Hg (1010.0 mb)
Winds: from the S (190 degrees) at 7 MPH (6 knots; 3.1 m/s)
Visibility: 4 miles ( 7 km)
Ceiling: 2000 feet AGL
Clouds: broken clouds at 2000 feet AGL
broken clouds at 10000 feet AGL
Weather: -SHRA  (light rain showers)

METAR text: SPQT 162126Z 17007KT 4000 1000NE SHRA SCT020 SCT020CB BKN100 26/24 Q1010
Conditions at: SPQT (IQUITOS/SECADA , PE) observed 2126 UTC 16 January 2019
Temperature: 26.0°C (79°F)
Dewpoint: 24.0°C (75°F) [RH = 89%]
Pressure (altimeter): 29.82 inches Hg (1010.0 mb)
Winds: from the S (170 degrees) at 8 MPH (7 knots; 3.6 m/s)
Visibility: 2.49 miles (4.01 km)
Ceiling: 10000 feet AGL
Clouds: scattered clouds at 2000 feet AGL
scattered clouds at 2000 feet AGL
broken clouds at 10000 feet AGL
Weather: SHRA  (rain showers)

METAR text: SPQT 162123Z 18007KT 5000 SHRA SCT020 SCT020CB BKN100 26/24 Q1010
Conditions at: SPQT (IQUITOS/SECADA , PE) observed 2123 UTC 16 January 2019
Temperature: 26.0°C (79°F)
Dewpoint: 24.0°C (75°F) [RH = 89%]
Pressure (altimeter): 29.82 inches Hg (1010.0 mb)
Winds: from the S (180 degrees) at 8 MPH (7 knots; 3.6 m/s)
Visibility: 3 miles ( 5 km)
Ceiling: 10000 feet AGL
Clouds: scattered clouds at 2000 feet AGL
scattered clouds at 2000 feet AGL
broken clouds at 10000 feet AGL
Weather: SHRA  (rain showers)

METAR text: SPQT 162109Z 19008KT 9999 -CORSHRA FEW020 FEW020CB BKN100 27/23 Q1010
Conditions at: SPQT (IQUITOS/SECADA , PE) observed 2109 UTC 16 January 2019
Temperature: 27.0°C (81°F)
Dewpoint: 23.0°C (73°F) [RH = 79%]
Pressure (altimeter): 29.82 inches Hg (1010.0 mb)
Winds: from the S (190 degrees) at 9 MPH (8 knots; 4.1 m/s)
Visibility: 6 or more miles (10+ km)
Ceiling: 10000 feet AGL
Clouds: few clouds at 2000 feet AGL
few clouds at 2000 feet AGL
broken clouds at 10000 feet AGL
Weather: SHRA  (rain showers)

Forecast for: SPQT (IQUITOS/SECADA , PE)
Text: TAF SPQT 161700Z 1618/1718 25003KT 9999 SCT015 BKN100 TX30/1620Z TN23/1711Z
Forecast period: 1800 to 2200 UTC 16 January 2019
Forecast type: FROM: standard forecast or significant change
Winds: from the WSW (250 degrees) at 3 MPH (3 knots; 1.5 m/s)
Visibility: 6 or more miles 10+ km)
Ceiling: 10000 feet AGL
Clouds: scattered clouds at 1500 feet AGL
broken clouds at 10000 feet AGL
Weather: no significant weather forecast for this period
Text: BECMG 1622/1700 VRB02KT SCT015 SCT100
Forecast period: 2200 UTC 16 January 2019 to 1200 UTC 17 January 2019
Forecast type: BECOMING: Conditions expected to become as follows by 0000 UTC 17 January 2019
Winds: variable direction winds at 2 MPH (2 knots; 1.0 m/s)
Visibility: 6 or more miles 10+ km)
Ceiling: at least 12,000 feet AGL
Clouds: scattered clouds at 1500 feet AGL
scattered clouds at 10000 feet AGL
Weather: no significant weather forecast for this period
Text: TEMPO 1708/1812 20004KT 3000 -DZRA BR BKN005 OVC070
Forecast period: 0800 UTC 17 January 2019 to 1200 UTC 18 January 2019
Forecast type: TEMPORARY: The following changes expected for less than half the time period
Winds: from the SSW (200 degrees) at 5 MPH (4 knots; 2.1 m/s)
Visibility: 1.86 miles (2.99 km)
Ceiling: 500 feet AGL
Clouds: broken clouds at 500 feet AGL
overcast cloud deck at 7000 feet AGL
Weather: -DZ -RA BR  (light drizzle, light rain, mist)
Text: BECMG 1712/1714 01003KT SCT012 BKN080
Forecast period: 1200 to 1800 UTC 17 January 2019
Forecast type: BECOMING: Conditions expected to become as follows by 1400 UTC 17 January 2019
Winds: from the N (10 degrees) at 3 MPH (3 knots; 1.5 m/s)
Visibility: 6 or more miles 10+ km)
Ceiling: 8000 feet AGL
Clouds: scattered clouds at 1200 feet AGL
broken clouds at 8000 feet AGL
Weather: no significant weather forecast for this period

 AIRPORT MAP

 RUNWAY INFORMATION
Runway 06 Runway length 8202 ft Runway width 148 ft
Runway elevation 306 ft Runway displaced threshold 0 ft Runway heading 57
Runway 24 Runway length 8202 ft Runway width 148 ft
Runway elevation 295 ft Runway displaced threshold 0 ft Runway heading 237

 AIRPORT FREQUENCIES
Type APP Name IQUITOS AP Frequency 124.1 MHZ
Type TWR Name IQUITOS TW Frequency 118.5 MHZ

 AIRPORT NEAR NAVIGATION AIDS
Type NDB Name Iquitos Frequency 335 KHZ
Type VOR-DME Name Iquitos Frequency 116500 KHZ



Powered by Virtual Airlines Manager [v2.6.2]